Time;durP1;ratioP1;P1;durP2;ratioP2;P2;SDS_P1;SDS_P2;PMS_P1;PMS_P2;Temp;Humidity;BMP_temperature;BMP_pressure;BME280_temperature;BME280_humidity;BME280_pressure;Samples;Min_cycle;Max_cycle;Signal;HPM_P1;HPM_P2
2023/04/13 00:00:15;;;;;;;30.00;13.75;;;8.20;99.90;;;;;;5051697;28;20025;-73
2023/04/13 00:02:42;;;;;;;26.83;12.60;;;8.10;99.90;;;;;;5051876;28;20031;-73
2023/04/13 00:05:09;;;;;;;22.42;10.90;;;8.10;99.90;;;;;;5051685;28;20029;-74
2023/04/13 00:07:39;;;;;;;19.65;10.35;;;8.10;99.90;;;;;;5037527;28;20048;-73
2023/04/13 00:10:08;;;;;;;20.65;10.15;;;8.10;99.90;;;;;;5041442;28;20033;-71
2023/04/13 00:12:39;;;;;;;21.42;10.15;;;8.10;99.90;;;;;;5051513;28;20028;-72
2023/04/13 00:15:06;;;;;;;18.83;9.18;;;8.10;99.90;;;;;;5051865;28;20028;-73
2023/04/13 00:17:36;;;;;;;17.38;8.75;;;8.20;99.90;;;;;;5051130;28;20017;-72
2023/04/13 00:20:07;;;;;;;22.55;9.52;;;8.20;99.90;;;;;;5051490;28;20200;-73
2023/04/13 00:22:33;;;;;;;17.33;8.88;;;8.30;99.90;;;;;;5051125;28;20025;-73
2023/04/13 00:25:00;;;;;;;20.50;10.88;;;8.20;99.90;;;;;;5051748;28;20021;-70
2023/04/13 00:27:26;;;;;;;20.90;9.98;;;8.20;99.90;;;;;;5051483;28;20393;-72
2023/04/13 00:29:55;;;;;;;16.25;8.90;;;8.30;99.90;;;;;;5044346;28;20116;-72
2023/04/13 00:32:22;;;;;;;18.15;8.20;;;8.30;99.90;;;;;;5051702;28;20059;-73
2023/04/13 00:34:48;;;;;;;16.33;7.80;;;8.30;99.90;;;;;;5050115;28;20032;-74
2023/04/13 00:37:14;;;;;;;20.63;8.70;;;8.30;99.90;;;;;;5050156;28;20017;-74
2023/04/13 00:39:42;;;;;;;19.10;9.32;;;8.30;99.90;;;;;;5049850;28;20064;-74
2023/04/13 00:42:11;;;;;;;22.63;10.77;;;8.40;99.90;;;;;;5051368;28;20025;-74
2023/04/13 00:44:38;;;;;;;22.50;9.43;;;8.20;99.90;;;;;;5049919;28;20124;-73
2023/04/13 00:47:05;;;;;;;17.27;8.95;;;8.20;99.90;;;;;;5050945;28;20096;-74
2023/04/13 00:49:33;;;;;;;16.67;8.32;;;8.10;99.90;;;;;;5050005;28;20041;-72
2023/04/13 00:52:01;;;;;;;18.33;9.30;;;8.20;99.90;;;;;;5051356;28;20014;-71
2023/04/13 00:54:28;;;;;;;18.13;9.63;;;8.20;99.90;;;;;;5050131;28;20472;-73
2023/04/13 00:56:56;;;;;;;22.90;10.05;;;8.20;99.90;;;;;;5051524;28;20052;-72
2023/04/13 00:59:24;;;;;;;18.40;9.82;;;8.00;99.90;;;;;;5050431;28;20163;-70
2023/04/13 01:01:55;;;;;;;19.25;10.45;;;8.10;99.90;;;;;;5050098;28;20052;-73
2023/04/13 01:04:23;;;;;;;22.10;10.40;;;8.10;99.90;;;;;;5051267;28;20025;-73
2023/04/13 01:07:00;;;;;;;21.88;10.80;;;8.10;99.90;;;;;;5052348;28;20079;-72
2023/04/13 01:09:33;;;;;;;17.95;9.65;;;8.20;99.90;;;;;;5043159;28;20108;-73
2023/04/13 01:12:09;;;;;;;17.20;9.65;;;8.20;99.90;;;;;;5054192;28;20155;-71
2023/04/13 01:14:46;;;;;;;20.58;10.52;;;8.20;99.90;;;;;;5054673;28;20032;-73
2023/04/13 01:17:21;;;;;;;17.45;9.25;;;8.10;99.90;;;;;;5053267;28;20040;-73
2023/04/13 01:20:00;;;;;;;20.98;9.75;;;8.10;99.90;;;;;;5044632;28;20056;-72
2023/04/13 01:22:34;;;;;;;18.92;10.48;;;8.10;99.90;;;;;;5085344;28;20458;-73
2023/04/13 01:25:21;;;;;;;23.25;10.02;;;8.00;99.90;;;;;;5053468;28;20025;-73
2023/04/13 01:27:55;;;;;;;19.92;10.23;;;8.00;99.90;;;;;;5043675;28;20477;-72
2023/04/13 01:30:26;;;;;;;20.30;9.75;;;7.90;99.90;;;;;;5053084;28;20033;-71
2023/04/13 01:32:54;;;;;;;24.27;11.75;;;8.00;99.90;;;;;;5053289;28;20033;-73
2023/04/13 01:35:24;;;;;;;21.50;9.57;;;8.00;99.90;;;;;;5053169;28;20021;-73
2023/04/13 01:37:51;;;;;;;23.15;11.15;;;8.00;99.90;;;;;;5052928;28;20059;-72
2023/04/13 01:40:22;;;;;;;18.55;9.95;;;8.00;99.90;;;;;;5053131;28;20100;-72
2023/04/13 01:42:52;;;;;;;21.02;11.07;;;8.00;99.90;;;;;;5053101;28;20032;-71
2023/04/13 01:45:22;;;;;;;23.73;10.45;;;8.00;99.90;;;;;;5052751;28;20044;-72
2023/04/13 01:48:18;;;;;;;19.80;10.20;;;8.00;99.90;;;;;;5054396;28;20052;-71
2023/04/13 01:51:02;;;;;;;24.05;11.10;;;8.10;99.90;;;;;;5049966;28;20036;-72
2023/04/13 01:54:24;;;;;;;19.50;9.63;;;8.10;99.90;;;;;;5053915;28;20487;-73
2023/04/13 01:56:50;;;;;;;19.30;9.48;;;8.00;99.90;;;;;;5053726;28;20044;-73
2023/04/13 01:59:16;;;;;;;18.40;9.90;;;8.00;99.90;;;;;;5053131;28;20029;-71
2023/04/13 02:01:43;;;;;;;21.85;8.73;;;8.10;99.90;;;;;;5052717;28;20033;-72
2023/04/13 02:04:09;;;;;;;21.67;10.10;;;8.10;99.90;;;;;;5053148;28;20109;-73
2023/04/13 02:06:38;;;;;;;19.38;9.55;;;8.10;99.90;;;;;;5046914;28;20439;-73
2023/04/13 02:09:06;;;;;;;17.45;9.05;;;8.10;99.90;;;;;;5023736;28;20500;-73
2023/04/13 02:11:34;;;;;;;21.20;8.70;;;8.00;99.90;;;;;;5052973;28;20116;-73
2023/04/13 02:14:02;;;;;;;18.80;8.85;;;7.90;99.90;;;;;;5052577;28;20060;-73
2023/04/13 02:16:29;;;;;;;17.98;8.93;;;8.00;99.90;;;;;;5052230;28;20033;-73
2023/04/13 02:18:57;;;;;;;16.77;9.88;;;8.00;99.90;;;;;;5053283;28;20021;-74
2023/04/13 02:21:23;;;;;;;20.92;9.68;;;8.00;99.90;;;;;;5052922;28;20060;-73
2023/04/13 02:23:51;;;;;;;19.55;9.25;;;8.00;99.90;;;;;;5052490;28;20049;-73
2023/04/13 02:26:17;;;;;;;22.65;9.82;;;8.00;99.90;;;;;;5052227;28;20083;-72
2023/04/13 02:28:44;;;;;;;19.48;9.63;;;8.00;99.90;;;;;;5052366;28;20036;-73
2023/04/13 02:31:15;;;;;;;20.92;10.05;;;8.00;99.90;;;;;;5053493;28;20055;-73
2023/04/13 02:33:43;;;;;;;22.63;10.57;;;8.00;99.90;;;;;;5043366;28;20050;-73
2023/04/13 02:36:09;;;;;;;22.02;10.10;;;8.00;99.90;;;;;;5046531;28;20025;-72
2023/04/13 02:38:41;;;;;;;17.85;9.68;;;8.10;99.90;;;;;;5043266;28;20517;-72
2023/04/13 02:41:21;;;;;;;21.65;10.48;;;8.00;99.90;;;;;;5039552;28;20030;-72
2023/04/13 02:43:51;;;;;;;20.17;9.98;;;7.90;99.90;;;;;;5044692;28;20446;-72
2023/04/13 02:46:20;;;;;;;18.25;10.23;;;7.90;99.90;;;;;;5037041;28;20026;-72
2023/04/13 02:48:50;;;;;;;19.77;8.77;;;7.90;99.90;;;;;;5028698;28;20497;-73
2023/04/13 02:51:16;;;;;;;19.05;9.27;;;7.80;99.90;;;;;;5050040;28;20066;-72
2023/04/13 02:53:42;;;;;;;15.13;8.70;;;7.80;99.90;;;;;;5031693;28;20092;-73
2023/04/13 02:56:09;;;;;;;17.58;9.70;;;7.80;99.90;;;;;;5031521;28;20473;-73
2023/04/13 02:58:35;;;;;;;17.17;8.77;;;7.70;99.90;;;;;;5031852;28;20029;-73
2023/04/13 03:01:06;;;;;;;18.98;10.45;;;7.80;99.90;;;;;;5031326;28;20552;-73
2023/04/13 03:03:33;;;;;;;18.27;8.48;;;7.70;99.90;;;;;;5039058;28;20074;-73
2023/04/13 03:06:00;;;;;;;18.80;8.88;;;7.70;99.90;;;;;;5048994;28;20419;-72
2023/04/13 03:08:37;;;;;;;20.33;9.07;;;7.60;99.90;;;;;;5051948;28;20087;-73
2023/04/13 03:11:10;;;;;;;21.50;10.77;;;7.60;99.90;;;;;;5045496;28;20025;-75
2023/04/13 03:13:41;;;;;;;20.10;9.95;;;7.50;99.90;;;;;;5049203;28;20025;-73
2023/04/13 03:16:10;;;;;;;16.98;8.70;;;7.40;99.90;;;;;;5043005;28;20040;-74
2023/04/13 03:18:37;;;;;;;15.68;8.63;;;7.40;99.90;;;;;;5046497;28;20040;-72
2023/04/13 03:21:04;;;;;;;15.73;8.75;;;7.40;99.90;;;;;;5051450;28;20047;-73
2023/04/13 03:23:37;;;;;;;15.70;8.35;;;7.30;99.90;;;;;;5051381;28;20021;-74
2023/04/13 03:26:07;;;;;;;15.88;9.35;;;7.30;99.90;;;;;;5051361;28;20507;-73
2023/04/13 03:28:33;;;;;;;20.25;11.23;;;7.20;99.90;;;;;;5049133;28;20032;-72
2023/04/13 03:31:00;;;;;;;18.02;9.27;;;7.20;99.90;;;;;;5043485;28;20023;-71
2023/04/13 03:33:27;;;;;;;21.63;9.88;;;7.20;99.90;;;;;;5050831;28;20029;-73
2023/04/13 03:35:53;;;;;;;17.65;7.38;;;7.20;99.90;;;;;;5052042;28;20028;-73
2023/04/13 03:38:25;;;;;;;19.00;10.68;;;7.10;99.90;;;;;;5051352;28;20044;-73
2023/04/13 03:40:51;;;;;;;19.48;11.20;;;7.20;99.90;;;;;;5051108;28;20037;-72
2023/04/13 03:43:18;;;;;;;21.50;10.23;;;7.10;99.90;;;;;;5031929;28;20075;-73
2023/04/13 03:45:51;;;;;;;14.85;7.40;;;7.10;99.90;;;;;;5043518;28;20060;-72
2023/04/13 03:48:18;;;;;;;14.40;7.47;;;7.20;99.90;;;;;;5045134;28;20484;-73
2023/04/13 03:50:45;;;;;;;16.90;7.22;;;7.20;99.90;;;;;;5038513;28;20116;-71
2023/04/13 03:53:14;;;;;;;13.80;7.05;;;7.10;99.90;;;;;;5079559;28;20075;-74
2023/04/13 03:55:43;;;;;;;15.65;7.22;;;7.10;99.90;;;;;;5027351;28;20033;-71
2023/04/13 03:58:10;;;;;;;14.20;8.40;;;7.10;99.90;;;;;;5030174;28;20502;-72
2023/04/13 04:00:36;;;;;;;16.38;6.90;;;7.10;99.90;;;;;;5030670;28;20030;-73
2023/04/13 04:03:09;;;;;;;17.25;7.30;;;7.20;99.90;;;;;;5030688;28;20021;-72
2023/04/13 04:05:53;;;;;;;19.63;9.30;;;7.30;99.90;;;;;;5032984;28;20037;-72
2023/04/13 04:08:19;;;;;;;30.30;12.25;;;7.30;99.90;;;;;;5037132;28;20400;-73
2023/04/13 04:10:46;;;;;;;25.48;12.38;;;7.50;99.90;;;;;;5043759;28;20025;-74
2023/04/13 04:13:14;;;;;;;19.05;9.35;;;7.60;99.90;;;;;;5032758;28;20026;-71
2023/04/13 04:15:45;;;;;;;17.70;9.90;;;7.90;99.90;;;;;;5032224;28;20025;-74
2023/04/13 04:18:11;;;;;;;16.20;8.13;;;8.10;99.90;;;;;;5064506;28;20037;-73
2023/04/13 04:20:38;;;;;;;15.27;8.82;;;8.20;99.90;;;;;;5032715;28;20025;-73
2023/04/13 04:23:05;;;;;;;16.08;8.80;;;8.40;99.90;;;;;;5067921;28;20038;-72
2023/04/13 04:25:39;;;;;;;17.77;8.48;;;8.80;99.90;;;;;;5043937;28;20033;-73
2023/04/13 04:28:06;;;;;;;25.77;10.00;;;9.30;99.90;;;;;;5035690;28;20022;-71
2023/04/13 04:30:32;;;;;;;20.73;10.75;;;9.60;99.90;;;;;;5031812;28;20071;-73
2023/04/13 04:33:00;;;;;;;24.67;13.27;;;9.50;99.90;;;;;;5036103;28;20033;-74
2023/04/13 04:35:32;;;;;;;27.10;13.33;;;9.10;99.90;;;;;;5050125;28;20017;-73
2023/04/13 04:38:02;;;;;;;34.95;17.17;;;9.10;99.90;;;;;;5034158;28;20094;-74
2023/04/13 04:40:29;;;;;;;29.23;14.32;;;9.40;99.90;;;;;;5034767;28;20025;-74
2023/04/13 04:42:57;;;;;;;27.15;12.35;;;9.30;99.90;;;;;;5075688;28;20123;-74
2023/04/13 04:45:35;;;;;;;23.13;11.43;;;9.90;99.90;;;;;;5037600;28;20017;-74
2023/04/13 04:48:02;;;;;;;21.33;11.50;;;10.20;99.80;;;;;;5034703;28;20036;-74
2023/04/13 04:50:30;;;;;;;19.20;10.00;;;10.70;98.10;;;;;;5050459;28;20028;-74
2023/04/13 04:53:07;;;;;;;19.10;10.55;;;11.20;97.40;;;;;;5050220;28;20033;-75
2023/04/13 04:55:33;;;;;;;23.13;10.75;;;11.90;96.00;;;;;;5044370;28;20488;-74
2023/04/13 04:57:59;;;;;;;24.95;13.30;;;12.30;95.10;;;;;;5037100;28;20025;-74
2023/04/13 05:00:29;;;;;;;20.23;11.45;;;12.20;93.60;;;;;;5038557;28;20030;-74
2023/04/13 05:03:15;;;;;;;22.00;11.40;;;13.10;92.50;;;;;;5037184;28;20033;-74
2023/04/13 05:05:48;;;;;;;21.23;10.48;;;12.80;91.30;;;;;;5033602;28;20037;-72
2023/04/13 05:08:21;;;;;;;21.77;15.32;;;13.50;91.20;;;;;;5031645;28;20029;-74
2023/04/13 05:10:49;;;;;;;27.02;16.83;;;13.00;90.00;;;;;;5032886;28;20083;-72
2023/04/13 05:13:15;;;;;;;23.50;14.75;;;12.70;90.40;;;;;;5033505;28;20033;-73
2023/04/13 05:15:47;;;;;;;24.42;14.20;;;12.10;90.30;;;;;;5040888;28;20026;-73
2023/04/13 05:18:14;;;;;;;24.98;13.25;;;11.20;91.50;;;;;;5033499;28;20114;-72
2023/04/13 05:20:40;;;;;;;25.52;13.60;;;11.10;92.20;;;;;;5040606;28;20024;-72
2023/04/13 05:23:08;;;;;;;20.65;12.20;;;10.40;92.90;;;;;;5053365;28;20120;-74
2023/04/13 05:25:39;;;;;;;21.23;12.73;;;10.80;94.30;;;;;;5045833;28;20540;-75
2023/04/13 05:28:13;;;;;;;22.60;12.75;;;10.90;94.30;;;;;;5032781;28;20134;-75
2023/04/13 05:30:39;;;;;;;22.95;14.30;;;11.30;93.40;;;;;;5031191;28;20026;-74
2023/04/13 05:33:08;;;;;;;23.10;12.82;;;11.20;92.70;;;;;;5042912;28;20186;-73
2023/04/13 05:35:36;;;;;;;22.95;10.93;;;11.50;91.90;;;;;;5053085;28;20033;-71
2023/04/13 05:38:04;;;;;;;20.48;10.98;;;11.70;91.80;;;;;;5053545;28;20132;-72
2023/04/13 05:40:34;;;;;;;21.08;11.30;;;11.70;92.90;;;;;;5053133;28;20029;-72
2023/04/13 05:43:01;;;;;;;18.88;8.48;;;12.10;93.00;;;;;;5054813;28;20028;-71
2023/04/13 05:45:31;;;;;;;19.15;7.72;;;12.30;91.80;;;;;;5053196;28;20025;-72
2023/04/13 05:48:03;;;;;;;11.57;5.35;;;12.50;91.50;;;;;;5052848;28;20116;-72
2023/04/13 05:50:30;;;;;;;15.82;7.50;;;12.60;88.30;;;;;;5054806;28;20028;-74
2023/04/13 05:52:58;;;;;;;17.13;6.80;;;12.60;87.50;;;;;;5052031;28;20024;-72
2023/04/13 05:55:28;;;;;;;16.80;8.17;;;12.90;89.00;;;;;;5053028;28;20079;-74
2023/04/13 05:58:02;;;;;;;15.82;6.75;;;12.80;86.20;;;;;;5052914;28;20278;-73
2023/04/13 06:00:28;;;;;;;15.70;7.60;;;12.60;85.30;;;;;;5043019;28;20037;-72
2023/04/13 06:03:01;;;;;;;15.00;7.93;;;12.60;88.50;;;;;;5084272;28;20380;-73
2023/04/13 06:05:30;;;;;;;19.83;8.48;;;12.50;87.50;;;;;;5052895;28;20059;-72
2023/04/13 06:07:56;;;;;;;14.68;7.57;;;12.60;88.30;;;;;;5033543;28;20044;-72
2023/04/13 06:10:22;;;;;;;18.13;7.75;;;12.50;87.90;;;;;;5034140;28;20141;-74
2023/04/13 06:12:49;;;;;;;15.02;7.50;;;12.70;88.70;;;;;;5032696;28;20025;-74
2023/04/13 06:15:16;;;;;;;13.90;7.85;;;12.80;86.60;;;;;;5032642;28;20029;-73
2023/04/13 06:17:41;;;;;;;17.33;8.10;;;13.00;88.40;;;;;;5034153;28;20083;-74
2023/04/13 06:20:09;;;;;;;15.80;7.97;;;13.30;88.50;;;;;;5032572;28;20029;-74
2023/04/13 06:22:35;;;;;;;16.40;7.00;;;13.10;85.80;;;;;;5032669;28;20034;-73
2023/04/13 06:25:01;;;;;;;16.38;8.05;;;13.30;86.00;;;;;;5032803;28;20112;-74
2023/04/13 06:27:33;;;;;;;19.45;9.07;;;13.30;87.70;;;;;;5032294;28;20373;-74
2023/04/13 06:30:01;;;;;;;26.35;8.15;;;13.70;89.00;;;;;;5032638;28;20029;-74
2023/04/13 06:32:31;;;;;;;19.85;8.43;;;13.80;86.10;;;;;;5040251;28;20090;-74
2023/04/13 06:34:57;;;;;;;23.67;9.85;;;14.00;86.10;;;;;;5032290;28;20488;-73
2023/04/13 06:37:29;;;;;;;18.00;7.78;;;14.30;88.60;;;;;;5032363;28;20056;-74
2023/04/13 06:39:56;;;;;;;14.00;5.47;;;14.70;84.80;;;;;;5032118;28;20045;-73
2023/04/13 06:42:23;;;;;;;18.98;8.00;;;14.90;84.40;;;;;;5032567;28;20303;-74
2023/04/13 06:45:03;;;;;;;17.45;8.18;;;15.00;85.10;;;;;;5033429;28;20095;-72
2023/04/13 06:47:41;;;;;;;16.33;7.50;;;15.20;88.10;;;;;;5032697;28;20025;-74
2023/04/13 06:50:14;;;;;;;13.43;5.93;;;15.50;85.50;;;;;;5032647;28;20032;-74
2023/04/13 06:52:45;;;;;;;10.90;6.00;;;15.70;83.40;;;;;;5019697;28;20038;-74
2023/04/13 06:55:12;;;;;;;15.45;7.57;;;15.70;81.90;;;;;;5045599;28;20025;-75
2023/04/13 06:57:40;;;;;;;21.65;7.05;;;15.80;85.10;;;;;;5012376;28;20439;-72
2023/04/13 07:00:07;;;;;;;17.67;6.82;;;15.40;81.90;;;;;;5045419;28;20036;-71
2023/04/13 07:02:33;;;;;;;17.50;6.38;;;15.20;82.00;;;;;;5044957;28;20036;-72
2023/04/13 07:05:00;;;;;;;12.80;6.07;;;15.10;83.00;;;;;;5019644;28;20034;-69
2023/04/13 07:07:27;;;;;;;14.93;6.45;;;14.90;83.00;;;;;;5047696;28;20452;-73
2023/04/13 07:09:55;;;;;;;13.95;6.00;;;14.70;81.40;;;;;;5051637;28;20056;-72
2023/04/13 07:12:20;;;;;;;15.45;6.55;;;14.80;81.20;;;;;;5051270;28;20021;-74
2023/04/13 07:14:47;;;;;;;11.60;5.85;;;15.30;83.70;;;;;;5051395;28;20028;-73
2023/04/13 07:17:15;;;;;;;12.23;5.60;;;15.40;81.60;;;;;;5051488;28;20021;-72
2023/04/13 07:19:46;;;;;;;12.65;4.82;;;15.50;83.30;;;;;;5052628;28;20111;-73
2023/04/13 07:22:13;;;;;;;10.95;5.05;;;15.20;81.80;;;;;;5051637;28;20087;-71
2023/04/13 07:24:40;;;;;;;22.58;14.40;;;15.30;80.80;;;;;;5051209;28;20392;-73
2023/04/13 07:27:09;;;;;;;15.18;8.20;;;15.70;82.90;;;;;;5051220;28;20028;-73
2023/04/13 07:29:36;;;;;;;14.52;6.53;;;15.60;82.60;;;;;;5051691;28;20052;-73
2023/04/13 07:32:08;;;;;;;;;;;15.70;81.60;;;;;;5051215;28;20021;-73
2023/04/13 07:34:36;;;;;;;11.30;5.07;;;16.00;81.50;;;;;;5052663;28;20430;-74
2023/04/13 07:37:02;;;;;;;16.70;5.80;;;15.60;81.50;;;;;;5052297;28;20119;-73
2023/04/13 07:39:29;;;;;;;12.30;5.05;;;15.60;81.60;;;;;;5051453;28;20527;-72
2023/04/13 07:41:56;;;;;;;9.27;4.75;;;15.30;80.00;;;;;;5052216;28;20052;-72
2023/04/13 07:44:45;;;;;;;8.25;3.78;;;15.50;80.60;;;;;;5052121;28;20039;-73
2023/04/13 07:47:12;;;;;;;10.63;4.07;;;16.10;79.50;;;;;;5051368;28;20035;-73
2023/04/13 07:49:40;;;;;;;8.32;4.53;;;16.60;82.50;;;;;;5050932;28;20468;-73
2023/04/13 07:52:12;;;;;;;7.80;4.73;;;16.40;79.40;;;;;;5035350;28;20033;-73
2023/04/13 07:54:39;;;;;;;9.75;5.05;;;16.80;80.60;;;;;;5050461;28;20054;-72
2023/04/13 07:57:07;;;;;;;9.18;4.50;;;17.10;78.50;;;;;;5050764;28;20021;-71
2023/04/13 07:59:36;;;;;;;7.93;3.83;;;16.90;73.80;;;;;;5034813;28;20071;-73
2023/04/13 08:02:03;;;;;;;7.15;3.90;;;16.70;74.90;;;;;;5050642;28;20118;-72
2023/04/13 08:04:32;;;;;;;6.10;3.65;;;17.10;77.50;;;;;;5050273;28;20037;-73
2023/04/13 08:07:03;;;;;;;11.10;4.28;;;17.50;75.10;;;;;;5050256;28;20045;-73
2023/04/13 08:09:39;;;;;;;10.80;4.80;;;17.50;74.70;;;;;;5050733;28;20055;-73
2023/04/13 08:12:06;;;;;;;9.60;4.18;;;17.70;73.00;;;;;;5050758;28;20047;-72
2023/04/13 08:14:37;;;;;;;9.05;4.93;;;17.70;73.70;;;;;;5050013;28;20041;-73
2023/04/13 08:17:04;;;;;;;8.10;3.70;;;18.00;77.90;;;;;;5052145;28;20040;-74
2023/04/13 08:19:31;;;;;;;8.45;3.83;;;18.30;72.80;;;;;;5050151;28;20036;-73
2023/04/13 08:21:58;;;;;;;7.38;3.70;;;18.60;74.60;;;;;;5050687;28;20090;-74
2023/04/13 08:24:25;;;;;;;10.02;4.00;;;18.60;71.40;;;;;;5050354;28;20491;-73
2023/04/13 08:26:53;;;;;;;8.75;3.85;;;18.80;74.10;;;;;;5052105;28;20124;-73
2023/04/13 08:29:20;;;;;;;13.20;4.80;;;18.90;74.90;;;;;;5050681;28;20115;-73
2023/04/13 08:31:46;;;;;;;7.93;4.05;;;19.10;74.80;;;;;;5051096;28;20372;-73
2023/04/13 08:34:13;;;;;;;9.48;4.65;;;19.30;72.30;;;;;;5050319;28;20017;-73
2023/04/13 08:36:39;;;;;;;10.20;4.75;;;19.40;71.80;;;;;;5050027;28;20064;-72
2023/04/13 08:39:09;;;;;;;10.35;4.53;;;19.50;71.70;;;;;;5043282;28;20046;-73
2023/04/13 08:41:37;;;;;;;8.32;4.57;;;19.60;73.60;;;;;;5045248;28;20048;-74
2023/04/13 08:44:07;;;;;;;8.32;4.90;;;19.50;71.90;;;;;;5050443;28;20028;-72
2023/04/13 08:46:37;;;;;;;7.38;3.80;;;19.80;76.60;;;;;;5050228;28;20099;-74
2023/04/13 08:49:06;;;;;;;11.82;4.35;;;20.00;73.80;;;;;;5051263;28;20032;-73
2023/04/13 08:51:46;;;;;;;9.50;4.28;;;20.10;73.80;;;;;;5050197;28;20025;-73
2023/04/13 08:54:13;;;;;;;11.32;5.22;;;20.30;70.70;;;;;;5050298;28;20028;-72
2023/04/13 08:56:43;;;;;;;9.80;4.53;;;20.40;69.40;;;;;;5050464;28;20060;-72
2023/04/13 08:59:10;;;;;;;10.90;3.90;;;19.90;67.50;;;;;;5050389;28;20377;-72
2023/04/13 09:01:37;;;;;;;9.48;4.80;;;20.00;68.30;;;;;;5051233;28;20063;-75
2023/04/13 09:04:09;;;;;;;9.75;4.90;;;20.10;70.80;;;;;;5050110;28;20036;-71
2023/04/13 09:06:40;;;;;;;10.85;4.72;;;19.80;68.40;;;;;;5017674;28;20128;-74
2023/04/13 09:09:13;;;;;;;14.27;5.43;;;20.20;69.80;;;;;;5044750;28;20378;-74
2023/04/13 09:11:41;;;;;;;12.13;5.32;;;20.20;71.60;;;;;;5052068;28;20033;-74
2023/04/13 09:14:07;;;;;;;13.50;5.55;;;20.00;68.30;;;;;;5051311;28;20079;-72
2023/04/13 09:16:41;;;;;;;10.70;5.05;;;19.70;68.80;;;;;;5050072;28;20021;-72
2023/04/13 09:19:14;;;;;;;18.95;5.32;;;19.60;70.60;;;;;;5049493;28;20120;-73
2023/04/13 09:21:43;;;;;;;11.95;5.97;;;19.50;69.50;;;;;;5051489;28;20032;-73
2023/04/13 09:24:10;;;;;;;12.85;5.93;;;19.80;71.90;;;;;;5051187;28;20024;-72
2023/04/13 09:26:54;;;;;;;11.32;6.13;;;20.10;72.50;;;;;;5052139;28;20028;-71
2023/04/13 09:29:23;;;;;;;11.90;6.65;;;20.00;69.50;;;;;;5055126;28;20476;-73
2023/04/13 09:31:48;;;;;;;9.63;4.97;;;20.10;69.70;;;;;;5054479;28;20060;-73
2023/04/13 09:34:28;;;;;;;12.35;6.05;;;20.00;66.40;;;;;;5054903;28;20131;-73
2023/04/13 09:36:54;;;;;;;14.98;6.20;;;19.80;67.50;;;;;;5054543;28;20039;-74
2023/04/13 09:39:26;;;;;;;11.07;5.68;;;19.90;68.40;;;;;;5054884;28;20397;-72
2023/04/13 09:41:53;;;;;;;11.73;5.78;;;20.00;70.10;;;;;;5053409;28;20100;-73
2023/04/13 09:44:23;;;;;;;19.50;5.55;;;20.00;69.00;;;;;;5054264;28;20048;-73
2023/04/13 09:47:02;;;;;;;7.30;4.07;;;20.10;70.00;;;;;;5054591;28;20021;-73
2023/04/13 09:49:41;;;;;;;11.63;5.38;;;19.90;64.50;;;;;;5053080;28;20055;-72
2023/04/13 09:52:21;;;;;;;8.38;4.43;;;20.10;64.60;;;;;;5054365;28;20070;-72
2023/04/13 09:54:59;;;;;;;7.38;3.50;;;20.70;68.00;;;;;;5054364;28;20536;-74
2023/04/13 09:57:30;;;;;;;8.68;3.90;;;20.30;65.40;;;;;;5054101;28;20043;-72
2023/04/13 09:59:59;;;;;;;6.10;3.28;;;20.80;68.20;;;;;;5054292;28;20047;-72
2023/04/13 10:02:25;;;;;;;6.75;3.38;;;21.10;66.10;;;;;;5054326;28;20017;-73
2023/04/13 10:04:52;;;;;;;5.65;3.58;;;21.50;66.70;;;;;;5053794;28;20029;-73
2023/04/13 10:07:25;;;;;;;9.10;4.00;;;21.10;63.20;;;;;;5054146;28;20377;-73
2023/04/13 10:09:53;;;;;;;5.50;3.05;;;21.10;61.80;;;;;;5054004;28;20043;-72
2023/04/13 10:12:19;;;;;;;6.10;3.00;;;21.20;63.70;;;;;;5054041;28;20498;-73
2023/04/13 10:14:48;;;;;;;6.95;2.45;;;21.20;61.90;;;;;;5053984;28;20029;-73
2023/04/13 10:17:33;;;;;;;7.05;3.30;;;21.50;62.00;;;;;;5052931;28;20033;-70
2023/04/13 10:20:12;;;;;;;6.57;3.15;;;21.10;60.10;;;;;;5044547;28;20065;-72
2023/04/13 10:22:41;;;;;;;7.43;2.90;;;21.20;60.30;;;;;;5053919;28;20033;-72
2023/04/13 10:25:14;;;;;;;6.53;2.90;;;21.30;61.90;;;;;;5053865;28;20443;-71
2023/04/13 10:27:41;;;;;;;5.53;2.75;;;21.20;61.80;;;;;;5054236;28;20367;-72
2023/04/13 10:30:16;;;;;;;5.03;3.22;;;20.70;61.50;;;;;;5053563;28;20090;-72
2023/04/13 10:32:43;;;;;;;5.32;2.65;;;21.00;63.20;;;;;;5053916;28;20056;-72
2023/04/13 10:35:14;;;;;;;3.95;2.80;;;21.20;62.30;;;;;;5053099;28;20070;-73
2023/04/13 10:37:42;;;;;;;4.40;2.50;;;21.00;64.30;;;;;;5053006;28;20037;-72
2023/04/13 10:40:09;;;;;;;8.27;3.53;;;20.50;60.20;;;;;;5053269;28;20266;-74
2023/04/13 10:42:39;;;;;;;6.72;2.97;;;20.90;64.40;;;;;;5053601;28;20032;-73
2023/04/13 10:45:16;;;;;;;4.22;2.70;;;21.00;62.80;;;;;;5053384;28;20516;-74
2023/04/13 10:47:42;;;;;;;5.57;3.22;;;21.20;62.80;;;;;;5053660;28;20040;-73
2023/04/13 10:50:16;;;;;;;4.65;2.85;;;21.30;62.70;;;;;;5050444;28;20071;-74
2023/04/13 10:52:58;;;;;;;5.75;2.92;;;21.30;62.70;;;;;;5033858;28;20112;-74
2023/04/13 10:55:26;;;;;;;8.18;3.38;;;21.30;62.80;;;;;;5033241;28;20465;-73
2023/04/13 10:57:53;;;;;;;3.25;2.38;;;21.20;61.20;;;;;;5033403;28;20051;-72
2023/04/13 11:00:23;;;;;;;8.98;3.30;;;21.60;64.10;;;;;;5032935;28;20025;-73
2023/04/13 11:02:50;;;;;;;6.85;2.70;;;21.50;60.20;;;;;;5043400;28;20476;-71
2023/04/13 11:05:18;;;;;;;6.55;3.10;;;21.80;64.10;;;;;;5053027;28;20083;-73
2023/04/13 11:07:44;;;;;;;5.00;2.90;;;21.50;60.20;;;;;;5052901;28;20496;-72
2023/04/13 11:10:10;;;;;;;9.02;3.22;;;21.70;60.80;;;;;;5052739;28;20025;-73
2023/04/13 11:12:36;;;;;;;6.38;3.22;;;21.70;64.20;;;;;;5052732;28;20082;-73
2023/04/13 11:15:02;;;;;;;10.75;3.65;;;21.30;60.20;;;;;;5052615;28;20021;-73
2023/04/13 11:17:28;;;;;;;6.55;3.00;;;21.60;66.00;;;;;;5052753;28;20528;-73
2023/04/13 11:19:55;;;;;;;6.95;3.10;;;21.80;63.20;;;;;;5052614;28;20151;-72
2023/04/13 11:22:23;;;;;;;5.82;2.90;;;21.60;60.60;;;;;;5052915;28;20033;-73
2023/04/13 11:24:50;;;;;;;6.15;3.30;;;21.80;63.40;;;;;;5052783;28;20511;-73
2023/04/13 11:27:23;;;;;;;7.85;3.03;;;21.80;62.60;;;;;;5052511;28;20495;-73
2023/04/13 11:30:08;;;;;;;4.45;2.60;;;21.70;61.80;;;;;;5052566;28;20120;-73
2023/04/13 11:32:35;;;;;;;7.05;3.08;;;21.80;61.10;;;;;;5052266;28;20025;-72
2023/04/13 11:35:10;;;;;;;15.05;3.92;;;21.40;60.70;;;;;;5052337;28;20025;-73
2023/04/13 11:37:42;;;;;;;6.45;2.85;;;21.90;65.80;;;;;;5052554;28;20029;-74
2023/04/13 11:40:21;;;;;;;7.88;3.47;;;22.00;62.80;;;;;;5052795;28;20040;-73
2023/04/13 11:42:53;;;;;;;4.32;2.92;;;22.00;60.50;;;;;;5052415;28;20039;-72
2023/04/13 11:45:21;;;;;;;7.80;2.55;;;21.60;60.80;;;;;;5052475;28;20049;-75
2023/04/13 11:47:52;;;;;;;7.30;3.60;;;21.70;60.60;;;;;;5052404;28;20025;-71
2023/04/13 11:50:20;;;;;;;7.43;2.95;;;21.90;63.00;;;;;;5051228;28;20155;-72
2023/04/13 11:52:48;;;;;;;6.15;2.67;;;21.70;59.40;;;;;;5052482;28;20029;-72
2023/04/13 11:55:15;;;;;;;6.57;2.90;;;21.70;60.40;;;;;;5051650;28;20013;-73
2023/04/13 11:57:41;;;;;;;4.95;2.83;;;21.60;61.00;;;;;;5051940;28;20032;-72
2023/04/13 12:00:17;;;;;;;31.08;5.82;;;21.40;60.70;;;;;;5052149;28;20041;-73
2023/04/13 12:02:43;;;;;;;5.10;2.67;;;21.70;62.20;;;;;;5052178;28;20067;-73
2023/04/13 12:05:26;;;;;;;6.03;2.83;;;21.50;60.20;;;;;;5052310;28;20025;-73
2023/04/13 12:07:54;;;;;;;4.30;2.83;;;21.80;61.10;;;;;;5051912;28;20049;-74
2023/04/13 12:10:22;;;;;;;5.68;3.15;;;21.90;60.70;;;;;;5052148;28;20412;-74
2023/04/13 12:13:02;;;;;;;6.07;3.30;;;22.30;63.50;;;;;;5051720;28;20029;-73
2023/04/13 12:15:31;;;;;;;5.78;2.80;;;22.30;58.40;;;;;;5051685;28;20029;-73
2023/04/13 12:17:58;;;;;;;4.82;2.80;;;22.00;59.30;;;;;;5051841;28;20033;-70
2023/04/13 12:20:25;;;;;;;10.05;3.42;;;22.30;61.90;;;;;;5051312;28;20033;-70
2023/04/13 12:22:51;;;;;;;7.05;3.08;;;22.10;60.10;;;;;;5052089;28;20025;-73
2023/04/13 12:25:19;;;;;;;6.30;3.28;;;22.20;62.30;;;;;;5051625;28;20033;-73
2023/04/13 12:27:51;;;;;;;4.63;2.38;;;22.10;60.00;;;;;;5051952;28;20029;-73
2023/04/13 12:30:19;;;;;;;6.35;3.28;;;22.30;60.10;;;;;;5051413;28;20037;-74
2023/04/13 12:32:51;;;;;;;7.38;3.08;;;22.30;61.60;;;;;;5051928;28;20451;-74
2023/04/13 12:35:18;;;;;;;5.82;2.83;;;22.40;64.30;;;;;;5051687;28;20037;-73
2023/04/13 12:37:45;;;;;;;4.32;2.65;;;22.50;61.50;;;;;;5052292;28;20083;-73
2023/04/13 12:40:14;;;;;;;5.47;2.97;;;22.60;61.50;;;;;;5051795;28;20070;-74
2023/04/13 12:42:44;;;;;;;4.65;2.75;;;22.60;62.70;;;;;;5051652;28;20070;-73
2023/04/13 12:45:11;;;;;;;4.57;2.70;;;22.70;59.10;;;;;;5051473;28;20035;-72
2023/04/13 12:47:37;;;;;;;5.50;2.90;;;22.70;62.00;;;;;;5051870;28;20025;-73
2023/04/13 12:50:07;;;;;;;8.45;3.22;;;22.80;63.40;;;;;;5051293;28;20120;-71
2023/04/13 12:52:34;;;;;;;6.57;3.63;;;22.70;61.50;;;;;;5051847;28;20120;-73